Main page
METAR-TAF:

METAR-TAF

Airports :

Pontoise – Cormeilles Aerodrome

Pontoise, France

latitude: 49-05-48N, longitude: 002-02-27E, elevation: 99 m

Current weather observation

The report was made 36 minutes ago, at 09:30 UTC
Wind 6 kt from the North/Northeast
Temperature 10°C
Humidity 76%
Pressure 1028 hPa
Visibility: 9000 m
Scattered clouds at a height of 1600 ft
Scattered clouds at a height of 24000 ft

METAR: LFPT 240930Z AUTO 02006KT 9000 SCT016 SCT240 10/06 Q1028

Time: 11:06 (10:06 UTC)


TAF: missing

Weather observations and forecasts of more than 4000 airports (METAR and TAF reports).

The available stations are represented by yellow and red dots on the map.

Hover mouse over dot to see the name of the station.

Then click to see weather observations and forecasts.

To change the map : click on the green buttons with a black cross to zoom in, on the green button with a dash to zoom out, or on the green arrows for adjacent maps.


METAR-TAF: